Latest Coastal Weather Observations for Swan Island

IDT60701

Issued at 10:32 am EDT Tuesday 9 February 2016 (issued every 10 minutes, with the page automatically refreshed every 10 minutes)

About coastal observations | Map of coastal stations | Coastal observations for TAS | Marine services | Other Formats
Station Details ID: 092123 Name: SWAN ISLAND Lat: -40.73 Lon: 148.12 Height: 15.0 m
Data from the previous 72 hours. | See also: Recent months at Swan Island
Date/Time
EDT
Temp

°C
Wind Pressure Rain
since 9am
mm
Weather Cloud Vis
km
Sea
Height
m
Swell
Dir
 
Speed
knots
Gust
knots
hPa Trend Height
m
Period
s
Dir
09/10:30am 22.2 NNE 5 7 1021.2 - 0.0 - - - - - - -
09/10:00am 20.6 NE 8 10 1021.0 - 0.0 - - - - - - -
09/09:30am 20.4 NE 13 15 1020.9 - 0.0 - - - - - - -
09/09:00am 20.7 NE 11 13 1021.0 - 0.0 - - - - - - -
09/08:30am 20.4 ENE 12 14 1021.0 - 0.0 - - - - - - -
09/08:00am 20.0 ENE 12 13 1020.9 - 0.0 - - - - - - -
09/07:30am 19.9 ENE 13 15 1020.6 - 0.0 - - - - - - -
09/07:00am 19.8 ENE 12 14 1020.3 - 0.0 - - - - - - -
09/06:30am 19.9 ENE 12 15 1020.2 - 0.0 - - - - - - -
09/06:00am 19.8 ENE 12 14 1019.9 - 0.0 - - - - - - -
09/05:30am 19.7 ENE 13 15 1019.6 - 0.0 - - - - - - -
09/05:00am 19.7 ENE 13 15 1019.5 - 0.0 - - - - - - -
09/04:30am 19.8 ENE 13 16 1019.5 - 0.0 - - - - - - -
09/04:00am 19.8 ENE 13 15 1019.4 - 0.0 - - - - - - -
09/03:30am 19.7 ENE 13 15 1019.4 - 0.0 - - - - - - -
09/03:00am 19.6 ENE 12 15 1019.5 - 0.0 - - - - - - -
09/02:30am 19.6 ENE 15 17 1019.5 - 0.0 - - - - - - -
09/02:00am 19.8 ENE 15 18 1019.5 - 0.0 - - - - - - -
09/01:30am 19.8 ENE 13 17 1019.7 - 0.0 - - - - - - -
09/01:00am 19.5 ENE 7 9 1019.8 - 0.0 - - - - - - -
09/12:30am 19.4 E 7 8 1019.8 - 0.0 - - - - - - -
09/12:00am 19.4 E 7 8 1019.8 - 0.0 - - - - - - -
 
Date/Time
EDT
Temp

°C
Wind Pressure Rain
since 9am
mm
Weather Cloud Vis
km
Sea
Height
m
Swell
Dir
 
Speed
knots
Gust
knots
hPa Trend Height
m
Period
s
Dir
08/11:30pm 19.5 E 5 6 1019.9 - 0.0 - - - - - - -
08/11:00pm 19.5 ENE 5 5 1019.8 - 0.0 - - - - - - -
08/10:30pm 19.7 NE 4 5 1019.7 - 0.0 - - - - - - -
08/10:00pm 19.7 NE 4 5 1019.7 - 0.0 - - - - - - -
08/09:30pm 19.7 NNE 3 4 1019.4 - 0.0 - - - - - - -
08/09:00pm 19.9 N 3 3 1019.0 - 0.0 - - - - - - -
08/08:30pm 20.1 NW 3 5 1018.7 - 0.0 - - - - - - -
08/08:00pm 20.5 WNW 5 7 1018.4 - 0.0 - - - - - - -
08/07:30pm 21.0 WNW 6 8 1018.0 - 0.0 - - - - - - -
08/07:00pm 21.6 WNW 7 9 1017.6 - 0.0 - - - - - - -
08/06:30pm 21.9 WNW 7 10 1017.5 - 0.0 - - - - - - -
08/06:00pm 22.2 NW 9 12 1017.3 - 0.0 - - - - - - -
08/05:30pm 22.6 NW 9 12 1017.4 - 0.0 - - - - - - -
08/05:00pm 22.8 WNW 10 13 1017.6 - 0.0 - - - - - - -
08/04:30pm 23.0 WNW 9 13 1017.7 - 0.0 - - - - - - -
08/04:00pm 23.1 WNW 11 16 1017.6 - 0.0 - - - - - - -
08/03:30pm 23.1 WNW 12 16 1017.4 - 0.0 - - - - - - -
08/03:00pm 23.1 NW 12 16 1017.4 - 0.0 - - - - - - -
08/02:30pm 23.3 NW 13 16 1017.5 - 0.0 - - - - - - -
08/02:00pm 23.2 NW 11 15 1017.5 - 0.0 - - - - - - -
08/01:30pm 23.0 NW 12 15 1017.7 - 0.0 - - - - - - -
08/01:00pm 23.5 NW 11 15 1017.9 - 0.0 - - - - - - -
08/12:30pm 23.6 WNW 11 14 1017.9 - 0.0 - - - - - - -
08/12:00pm 23.2 WNW 10 13 1018.3 - 0.0 - - - - - - -
08/11:30am 22.9 WNW 8 12 1018.3 - 0.0 - - - - - - -
08/11:00am 23.2 WNW 7 10 1018.4 - 0.0 - - - - - - -
08/10:30am 23.5 W 8 11 1018.2 - 0.0 - - - - - - -
08/10:00am 22.4 W 9 12 1018.3 - 0.0 - - - - - - -
08/09:30am 21.4 W 9 11 1018.2 - 0.0 - - - - - - -
08/09:00am 21.6 WSW 6 9 1018.3 - 0.0 - - - - - - -
08/08:30am 20.7 WSW 5 8 1018.1 - 0.0 - - - - - - -
08/08:00am 19.8 WSW 4 5 1018.1 - 0.0 - - - - - - -
08/07:30am 19.3 SW 2 3 1017.9 - 0.0 - - - - - - -
08/07:00am 19.0 CALM 0 0 1017.7 - 0.0 - - - - - - -
08/06:30am 18.5 SW 1 1 1017.6 - 0.0 - - - - - - -
08/06:00am 18.4 SW 2 2 1017.5 - 0.0 - - - - - - -
08/05:30am 18.2 SW 2 3 1017.4 - 0.0 - - - - - - -
08/05:00am 17.8 SW 3 3 1017.3 - 0.0 - - - - - - -
08/04:30am 17.9 SW 2 3 1017.3 - 0.0 - - - - - - -
08/04:00am 18.4 CALM 0 1 1017.2 - 0.0 - - - - - - -
08/03:30am 18.4 SW 3 3 1017.3 - 0.0 - - - - - - -
08/03:00am 18.6 SW 1 2 1017.5 - 0.0 - - - - - - -
08/02:30am 18.6 WSW 3 3 1017.7 - 0.0 - - - - - - -
08/02:00am 19.5 W 3 4 1017.8 - 0.0 - - - - - - -
08/01:30am 19.4 W 1 3 1018.0 - 0.0 - - - - - - -
08/01:00am 19.2 W 2 2 1018.1 - 0.0 - - - - - - -
08/12:30am 19.3 W 3 4 1018.0 - 0.0 - - - - - - -
08/12:00am 19.8 W 3 4 1018.3 - 0.0 - - - - - - -
 
Date/Time
EDT
Temp

°C
Wind Pressure Rain
since 9am
mm
Weather Cloud Vis
km
Sea
Height
m
Swell
Dir
 
Speed
knots
Gust
knots
hPa Trend Height
m
Period
s
Dir
07/11:30pm 19.7 W 2 3 1018.2 - 0.0 - - - - - - -
07/11:00pm 19.5 W 2 3 1018.2 - 0.0 - - - - - - -
07/10:30pm 19.8 WNW 3 4 1018.3 - 0.0 - - - - - - -
07/10:00pm 20.5 NW 5 7 1018.2 - 0.0 - - - - - - -
07/09:30pm 20.6 NNW 8 11 1017.9 - 0.0 - - - - - - -
07/09:00pm 20.7 N 9 10 1017.4 - 0.0 - - - - - - -
07/08:30pm 20.9 N 8 10 1017.0 - 0.0 - - - - - - -
07/08:00pm 20.9 NNE 6 9 1016.8 - 0.0 - - - - - - -
07/07:30pm 20.9 NE 7 9 1016.6 - 0.0 - - - - - - -
07/07:00pm 20.9 NE 10 13 1016.7 - 0.0 - - - - - - -
07/06:30pm 21.0 NE 11 14 1016.6 - 0.0 - - - - - - -
07/06:00pm 21.3 NE 13 15 1016.5 - 0.0 - - - - - - -
07/05:30pm 21.6 ENE 13 16 1016.4 - 0.0 - - - - - - -
07/05:00pm 21.8 ENE 12 15 1016.7 - 0.0 - - - - - - -
07/04:30pm 22.4 ENE 11 13 1016.8 - 0.0 - - - - - - -
07/04:00pm 22.3 ENE 11 13 1016.8 - 0.0 - - - - - - -
07/03:30pm 22.3 ENE 11 13 1016.9 - 0.0 - - - - - - -
07/03:00pm 22.9 ENE 10 13 1017.3 - 0.0 - - - - - - -
07/02:30pm 23.0 ENE 10 12 1017.4 - 0.0 - - - - - - -
07/02:00pm 23.2 ENE 9 10 1017.5 - 0.0 - - - - - - -
07/01:30pm 23.0 ENE 8 10 1017.8 - 0.0 - - - - - - -
07/01:00pm 23.4 ENE 7 9 1017.9 - 0.0 - - - - - - -
07/12:30pm 22.8 ENE 6 7 1018.1 - 0.0 - - - - - - -
07/12:00pm 22.8 ENE 5 7 1018.2 - 0.0 - - - - - - -
07/11:30am 22.3 E 4 5 1018.5 - 0.0 - - - - - - -
07/11:00am 21.8 ENE 4 5 1018.6 - 0.0 - - - - - - -
07/10:30am 21.5 NE 3 4 1018.8 - 0.0 - - - - - - -
07/10:00am 21.0 N 2 3 1018.9 - 0.0 - - - - - - -
07/09:30am 20.8 N 4 6 1018.8 - 0.0 - - - - - - -
07/09:00am 20.1 N 7 9 1018.7 - 0.0 - - - - - - -
07/08:30am 19.9 N 7 9 1018.4 - 0.0 - - - - - - -
07/08:00am 20.1 NNE 4 5 1018.2 - 0.0 - - - - - - -
07/07:30am 19.7 NNE 6 8 1017.9 - 0.0 - - - - - - -
07/07:00am 19.2 N 6 9 1017.7 - 0.0 - - - - - - -
07/06:30am 19.1 NNE 5 7 1017.4 - 0.0 - - - - - - -
07/06:00am 19.4 N 7 9 1017.2 - 0.0 - - - - - - -
07/05:30am 19.4 NNE 6 8 1017.2 - 0.0 - - - - - - -
07/05:00am 19.2 NNE 5 6 1017.2 - 0.0 - - - - - - -
07/04:30am 18.9 NNE 5 7 1017.3 - 0.0 - - - - - - -
07/04:00am 19.1 NNE 5 7 1017.3 - 0.0 - - - - - - -
07/03:30am 18.9 NNE 7 9 1017.2 - 0.0 - - - - - - -
07/03:00am 19.1 N 9 12 1017.4 - 0.0 - - - - - - -
07/02:30am 19.1 NNE 7 9 1017.5 - 0.0 - - - - - - -
07/02:00am 19.1 NNE 9 13 1017.5 - 0.0 - - - - - - -
07/01:30am 18.9 NNE 6 9 1018.0 - 0.0 - - - - - - -
07/01:00am 19.0 N 6 8 1018.4 - 0.0 - - - - - - -
07/12:30am 19.3 NNE 9 12 1018.5 - 0.0 - - - - - - -
07/12:00am 19.3 NNE 10 13 1018.6 - 0.0 - - - - - - -
 
Date/Time
EDT
Temp

°C
Wind Pressure Rain
since 9am
mm
Weather Cloud Vis
km
Sea
Height
m
Swell
Dir
 
Speed
knots
Gust
knots
hPa Trend Height
m
Period
s
Dir
06/11:30pm 19.4 NNE 9 11 1018.9 - 0.0 - - - - - - -
06/11:00pm 19.4 NNE 9 12 1018.9 - 0.0 - - - - - - -
06/10:30pm 19.4 NNE 10 13 1018.7 - 0.0 - - - - - - -
06/10:00pm 19.5 NNE 10 12 1019.0 - 0.0 - - - - - - -
06/09:30pm 19.5 NE 11 13 1018.9 - 0.0 - - - - - - -
06/09:00pm 19.6 NE 10 13 1018.7 - 0.0 - - - - - - -
06/08:30pm 19.6 NE 10 13 1018.5 - 0.0 - - - - - - -
06/08:00pm 19.8 NE 11 13 1018.4 - 0.0 - - - - - - -
06/07:30pm 20.1 NE 11 13 1018.2 - 0.0 - - - - - - -
06/07:00pm 20.5 ENE 11 13 1018.1 - 0.0 - - - - - - -
06/06:30pm 21.0 ENE 10 11 1018.1 - 0.0 - - - - - - -
06/06:00pm 21.1 ENE 10 12 1018.2 - 0.0 - - - - - - -
06/05:30pm 21.4 ENE 9 11 1018.4 - 0.0 - - - - - - -
06/05:00pm 21.4 ENE 10 12 1018.5 - 0.0 - - - - - - -
06/04:30pm 21.8 ENE 10 12 1018.6 - 0.0 - - - - - - -
06/04:00pm 22.3 ENE 10 11 1018.7 - 0.0 - - - - - - -
06/03:30pm 22.0 ENE 9 11 1019.2 - 0.0 - - - - - - -
06/03:00pm 23.1 E 9 11 1019.4 - 0.0 - - - - - - -
06/02:30pm 23.4 E 8 9 1019.7 - 0.0 - - - - - - -
06/02:00pm 22.4 E 8 10 1020.0 - 0.0 - - - - - - -
06/01:30pm 21.9 ENE 9 10 1020.3 - 0.0 - - - - - - -
06/01:00pm 22.3 ENE 8 9 1020.5 - 0.0 - - - - - - -
06/12:30pm 21.8 NE 8 9 1020.7 - 0.0 - - - - - - -
06/12:00pm 21.2 E 7 10 1020.9 - 0.0 - - - - - - -
06/11:30am 21.2 ESE 7 9 1021.2 - 0.0 - - - - - - -
06/11:00am 21.4 ESE 5 7 1021.2 - 0.0 - - - - - - -

Other Formats:

Comma delimited format used in spreadsheet applications
http://www.bom.gov.au/fwo/IDT60701/IDT60701.95985.axf

JavaScript Object Notation format (JSON) in row-major order
http://www.bom.gov.au/fwo/IDT60701/IDT60701.95985.json